sensor_id;sensor_type;location;lat;lon;timestamp;P1;durP1;ratioP1;P2;durP2;ratioP2
28343;SDS011;15597;50.914;6.638;2023-05-14T00:02:09;9.15;;;5.40;;
28343;SDS011;15597;50.914;6.638;2023-05-14T00:04:34;9.30;;;6.00;;
28343;SDS011;15597;50.914;6.638;2023-05-14T00:07:00;9.68;;;6.05;;
28343;SDS011;15597;50.914;6.638;2023-05-14T00:09:26;11.80;;;6.30;;
28343;SDS011;15597;50.914;6.638;2023-05-14T00:11:51;9.35;;;6.32;;
28343;SDS011;15597;50.914;6.638;2023-05-14T00:14:16;9.65;;;6.13;;
28343;SDS011;15597;50.914;6.638;2023-05-14T00:16:42;8.70;;;6.50;;
28343;SDS011;15597;50.914;6.638;2023-05-14T00:19:08;10.52;;;6.25;;
28343;SDS011;15597;50.914;6.638;2023-05-14T00:21:33;8.43;;;4.82;;
28343;SDS011;15597;50.914;6.638;2023-05-14T00:23:59;8.05;;;4.93;;
28343;SDS011;15597;50.914;6.638;2023-05-14T00:26:24;9.27;;;5.40;;
28343;SDS011;15597;50.914;6.638;2023-05-14T00:28:50;9.75;;;5.90;;
28343;SDS011;15597;50.914;6.638;2023-05-14T00:31:15;10.95;;;6.68;;
28343;SDS011;15597;50.914;6.638;2023-05-14T00:33:41;9.75;;;5.82;;
28343;SDS011;15597;50.914;6.638;2023-05-14T00:36:06;9.75;;;6.40;;
28343;SDS011;15597;50.914;6.638;2023-05-14T00:38:32;9.43;;;5.93;;
28343;SDS011;15597;50.914;6.638;2023-05-14T00:40:58;9.75;;;6.70;;
28343;SDS011;15597;50.914;6.638;2023-05-14T00:43:23;12.15;;;6.82;;
28343;SDS011;15597;50.914;6.638;2023-05-14T00:45:51;9.68;;;6.32;;
28343;SDS011;15597;50.914;6.638;2023-05-14T00:48:18;12.52;;;6.25;;
28343;SDS011;15597;50.914;6.638;2023-05-14T00:50:45;10.30;;;5.97;;
28343;SDS011;15597;50.914;6.638;2023-05-14T00:53:13;9.27;;;6.38;;
28343;SDS011;15597;50.914;6.638;2023-05-14T00:55:40;10.93;;;6.47;;
28343;SDS011;15597;50.914;6.638;2023-05-14T00:58:06;9.75;;;6.20;;
28343;SDS011;15597;50.914;6.638;2023-05-14T01:00:34;8.65;;;5.88;;
28343;SDS011;15597;50.914;6.638;2023-05-14T01:03:02;8.45;;;5.72;;
28343;SDS011;15597;50.914;6.638;2023-05-14T01:05:28;7.53;;;5.45;;
28343;SDS011;15597;50.914;6.638;2023-05-14T01:08:24;8.30;;;5.80;;
28343;SDS011;15597;50.914;6.638;2023-05-14T01:11:08;8.30;;;5.78;;
28343;SDS011;15597;50.914;6.638;2023-05-14T01:13:51;9.07;;;5.90;;
28343;SDS011;15597;50.914;6.638;2023-05-14T01:16:18;11.38;;;6.72;;
28343;SDS011;15597;50.914;6.638;2023-05-14T01:18:45;9.40;;;6.32;;
28343;SDS011;15597;50.914;6.638;2023-05-14T01:23:59;10.77;;;6.70;;
28343;SDS011;15597;50.914;6.638;2023-05-14T01:26:24;10.35;;;5.95;;
28343;SDS011;15597;50.914;6.638;2023-05-14T01:28:51;9.32;;;6.13;;
28343;SDS011;15597;50.914;6.638;2023-05-14T01:31:18;9.23;;;6.00;;
28343;SDS011;15597;50.914;6.638;2023-05-14T01:33:51;9.38;;;6.43;;
28343;SDS011;15597;50.914;6.638;2023-05-14T01:38:46;8.65;;;5.63;;
28343;SDS011;15597;50.914;6.638;2023-05-14T01:41:15;8.55;;;6.32;;
28343;SDS011;15597;50.914;6.638;2023-05-14T01:43:43;10.07;;;5.85;;
28343;SDS011;15597;50.914;6.638;2023-05-14T01:46:09;8.93;;;5.93;;
28343;SDS011;15597;50.914;6.638;2023-05-14T01:48:35;9.48;;;6.28;;
28343;SDS011;15597;50.914;6.638;2023-05-14T01:51:02;8.43;;;5.45;;
28343;SDS011;15597;50.914;6.638;2023-05-14T01:53:28;8.73;;;5.32;;
28343;SDS011;15597;50.914;6.638;2023-05-14T01:55:53;8.18;;;5.82;;
28343;SDS011;15597;50.914;6.638;2023-05-14T01:58:19;9.40;;;6.55;;
28343;SDS011;15597;50.914;6.638;2023-05-14T02:00:45;9.57;;;6.00;;
28343;SDS011;15597;50.914;6.638;2023-05-14T02:03:10;11.73;;;7.00;;
28343;SDS011;15597;50.914;6.638;2023-05-14T02:05:36;9.82;;;5.57;;
28343;SDS011;15597;50.914;6.638;2023-05-14T02:08:01;10.93;;;6.43;;
28343;SDS011;15597;50.914;6.638;2023-05-14T02:10:27;9.05;;;6.60;;
28343;SDS011;15597;50.914;6.638;2023-05-14T02:12:52;11.38;;;6.03;;
28343;SDS011;15597;50.914;6.638;2023-05-14T02:15:18;10.63;;;6.28;;
28343;SDS011;15597;50.914;6.638;2023-05-14T02:17:43;10.82;;;5.43;;
28343;SDS011;15597;50.914;6.638;2023-05-14T02:20:09;10.70;;;5.78;;
28343;SDS011;15597;50.914;6.638;2023-05-14T02:22:40;8.48;;;5.07;;
28343;SDS011;15597;50.914;6.638;2023-05-14T02:25:10;7.18;;;4.55;;
28343;SDS011;15597;50.914;6.638;2023-05-14T02:27:35;7.90;;;5.05;;
28343;SDS011;15597;50.914;6.638;2023-05-14T02:30:02;13.57;;;6.80;;
28343;SDS011;15597;50.914;6.638;2023-05-14T02:32:28;12.27;;;6.68;;
28343;SDS011;15597;50.914;6.638;2023-05-14T02:34:54;11.57;;;6.05;;
28343;SDS011;15597;50.914;6.638;2023-05-14T02:37:20;9.02;;;6.35;;
28343;SDS011;15597;50.914;6.638;2023-05-14T02:39:45;10.23;;;6.43;;
28343;SDS011;15597;50.914;6.638;2023-05-14T02:42:11;8.13;;;5.88;;
28343;SDS011;15597;50.914;6.638;2023-05-14T02:44:36;9.73;;;5.88;;
28343;SDS011;15597;50.914;6.638;2023-05-14T02:47:02;11.75;;;7.20;;
28343;SDS011;15597;50.914;6.638;2023-05-14T02:49:28;12.75;;;6.78;;
28343;SDS011;15597;50.914;6.638;2023-05-14T02:51:53;11.60;;;6.38;;
28343;SDS011;15597;50.914;6.638;2023-05-14T02:54:19;10.80;;;6.68;;
28343;SDS011;15597;50.914;6.638;2023-05-14T02:56:44;10.55;;;7.07;;
28343;SDS011;15597;50.914;6.638;2023-05-14T02:59:10;11.45;;;7.13;;
28343;SDS011;15597;50.914;6.638;2023-05-14T03:01:36;10.18;;;6.93;;
28343;SDS011;15597;50.914;6.638;2023-05-14T03:04:01;11.60;;;7.38;;
28343;SDS011;15597;50.914;6.638;2023-05-14T03:06:27;10.43;;;6.70;;
28343;SDS011;15597;50.914;6.638;2023-05-14T03:08:52;10.07;;;5.78;;
28343;SDS011;15597;50.914;6.638;2023-05-14T03:11:18;8.98;;;5.47;;
28343;SDS011;15597;50.914;6.638;2023-05-14T03:13:43;10.60;;;5.70;;
28343;SDS011;15597;50.914;6.638;2023-05-14T03:16:09;8.27;;;5.53;;
28343;SDS011;15597;50.914;6.638;2023-05-14T03:18:35;7.00;;;4.30;;
28343;SDS011;15597;50.914;6.638;2023-05-14T03:21:01;9.70;;;5.68;;
28343;SDS011;15597;50.914;6.638;2023-05-14T03:23:27;8.93;;;6.00;;
28343;SDS011;15597;50.914;6.638;2023-05-14T03:28:23;9.48;;;4.53;;
28343;SDS011;15597;50.914;6.638;2023-05-14T03:30:48;9.52;;;5.15;;
28343;SDS011;15597;50.914;6.638;2023-05-14T03:33:14;7.45;;;5.25;;
28343;SDS011;15597;50.914;6.638;2023-05-14T03:35:40;12.75;;;6.60;;
28343;SDS011;15597;50.914;6.638;2023-05-14T03:38:05;8.85;;;5.47;;
28343;SDS011;15597;50.914;6.638;2023-05-14T03:40:33;8.73;;;5.57;;
28343;SDS011;15597;50.914;6.638;2023-05-14T03:42:58;9.70;;;5.97;;
28343;SDS011;15597;50.914;6.638;2023-05-14T03:45:24;12.23;;;5.50;;
28343;SDS011;15597;50.914;6.638;2023-05-14T03:47:51;9.15;;;5.22;;
28343;SDS011;15597;50.914;6.638;2023-05-14T03:50:17;10.50;;;6.70;;
28343;SDS011;15597;50.914;6.638;2023-05-14T03:52:43;9.15;;;6.45;;
28343;SDS011;15597;50.914;6.638;2023-05-14T03:55:10;10.10;;;6.03;;
28343;SDS011;15597;50.914;6.638;2023-05-14T03:57:36;9.80;;;6.15;;
28343;SDS011;15597;50.914;6.638;2023-05-14T04:00:02;9.25;;;6.10;;
28343;SDS011;15597;50.914;6.638;2023-05-14T04:02:42;11.18;;;5.60;;
28343;SDS011;15597;50.914;6.638;2023-05-14T04:05:07;9.95;;;6.35;;
28343;SDS011;15597;50.914;6.638;2023-05-14T04:07:33;9.00;;;5.22;;
28343;SDS011;15597;50.914;6.638;2023-05-14T04:09:59;10.27;;;5.95;;
28343;SDS011;15597;50.914;6.638;2023-05-14T04:12:25;8.60;;;5.15;;
28343;SDS011;15597;50.914;6.638;2023-05-14T04:14:51;9.50;;;6.00;;
28343;SDS011;15597;50.914;6.638;2023-05-14T04:17:17;8.52;;;5.22;;
28343;SDS011;15597;50.914;6.638;2023-05-14T04:19:42;8.00;;;4.70;;
28343;SDS011;15597;50.914;6.638;2023-05-14T04:22:08;9.02;;;5.53;;
28343;SDS011;15597;50.914;6.638;2023-05-14T04:24:33;9.73;;;5.82;;
28343;SDS011;15597;50.914;6.638;2023-05-14T04:26:59;10.45;;;6.05;;
28343;SDS011;15597;50.914;6.638;2023-05-14T04:29:25;10.30;;;5.68;;
28343;SDS011;15597;50.914;6.638;2023-05-14T04:31:50;10.70;;;5.60;;
28343;SDS011;15597;50.914;6.638;2023-05-14T04:34:16;9.70;;;6.43;;
28343;SDS011;15597;50.914;6.638;2023-05-14T04:36:41;9.48;;;5.78;;
28343;SDS011;15597;50.914;6.638;2023-05-14T04:39:07;10.82;;;7.00;;
28343;SDS011;15597;50.914;6.638;2023-05-14T04:41:36;10.35;;;5.72;;
28343;SDS011;15597;50.914;6.638;2023-05-14T04:44:02;10.20;;;6.75;;
28343;SDS011;15597;50.914;6.638;2023-05-14T04:46:28;9.63;;;6.50;;
28343;SDS011;15597;50.914;6.638;2023-05-14T04:48:53;9.45;;;6.28;;
28343;SDS011;15597;50.914;6.638;2023-05-14T04:51:20;13.77;;;6.82;;
28343;SDS011;15597;50.914;6.638;2023-05-14T04:53:48;11.48;;;6.53;;
28343;SDS011;15597;50.914;6.638;2023-05-14T04:56:13;11.35;;;7.47;;
28343;SDS011;15597;50.914;6.638;2023-05-14T04:58:39;8.43;;;5.30;;
28343;SDS011;15597;50.914;6.638;2023-05-14T05:01:04;10.30;;;6.72;;
28343;SDS011;15597;50.914;6.638;2023-05-14T05:03:30;11.43;;;7.05;;
28343;SDS011;15597;50.914;6.638;2023-05-14T05:05:56;10.57;;;6.93;;
28343;SDS011;15597;50.914;6.638;2023-05-14T05:08:22;13.05;;;7.20;;
28343;SDS011;15597;50.914;6.638;2023-05-14T05:10:47;11.05;;;5.38;;
28343;SDS011;15597;50.914;6.638;2023-05-14T05:13:13;8.63;;;4.63;;
28343;SDS011;15597;50.914;6.638;2023-05-14T05:15:41;11.02;;;6.20;;
28343;SDS011;15597;50.914;6.638;2023-05-14T05:18:07;12.48;;;7.30;;
28343;SDS011;15597;50.914;6.638;2023-05-14T05:20:33;9.50;;;5.93;;
28343;SDS011;15597;50.914;6.638;2023-05-14T05:22:58;10.80;;;5.55;;
28343;SDS011;15597;50.914;6.638;2023-05-14T05:25:24;8.25;;;5.50;;
28343;SDS011;15597;50.914;6.638;2023-05-14T05:27:49;7.32;;;4.32;;
28343;SDS011;15597;50.914;6.638;2023-05-14T05:30:15;15.07;;;8.10;;
28343;SDS011;15597;50.914;6.638;2023-05-14T05:32:41;13.95;;;9.40;;
28343;SDS011;15597;50.914;6.638;2023-05-14T05:35:07;12.10;;;8.38;;
28343;SDS011;15597;50.914;6.638;2023-05-14T05:37:33;12.63;;;8.70;;
28343;SDS011;15597;50.914;6.638;2023-05-14T05:39:58;14.00;;;9.00;;
28343;SDS011;15597;50.914;6.638;2023-05-14T05:42:24;10.30;;;5.22;;
28343;SDS011;15597;50.914;6.638;2023-05-14T05:44:50;8.20;;;4.65;;
28343;SDS011;15597;50.914;6.638;2023-05-14T05:47:15;14.95;;;7.82;;
28343;SDS011;15597;50.914;6.638;2023-05-14T05:49:42;14.65;;;8.85;;
28343;SDS011;15597;50.914;6.638;2023-05-14T05:52:07;12.60;;;8.25;;
28343;SDS011;15597;50.914;6.638;2023-05-14T05:54:33;14.65;;;8.57;;
28343;SDS011;15597;50.914;6.638;2023-05-14T05:56:58;13.88;;;8.30;;
28343;SDS011;15597;50.914;6.638;2023-05-14T05:59:24;13.88;;;7.78;;
28343;SDS011;15597;50.914;6.638;2023-05-14T06:01:50;8.07;;;5.00;;
28343;SDS011;15597;50.914;6.638;2023-05-14T06:04:15;13.93;;;8.70;;
28343;SDS011;15597;50.914;6.638;2023-05-14T06:06:41;16.10;;;7.90;;
28343;SDS011;15597;50.914;6.638;2023-05-14T06:09:07;15.25;;;8.70;;
28343;SDS011;15597;50.914;6.638;2023-05-14T06:11:33;12.30;;;7.38;;
28343;SDS011;15597;50.914;6.638;2023-05-14T06:13:59;14.10;;;9.23;;
28343;SDS011;15597;50.914;6.638;2023-05-14T06:16:24;6.78;;;4.35;;
28343;SDS011;15597;50.914;6.638;2023-05-14T06:18:50;7.45;;;3.83;;
28343;SDS011;15597;50.914;6.638;2023-05-14T06:21:17;5.70;;;3.78;;
28343;SDS011;15597;50.914;6.638;2023-05-14T06:23:43;10.85;;;6.10;;
28343;SDS011;15597;50.914;6.638;2023-05-14T06:26:09;14.70;;;9.10;;
28343;SDS011;15597;50.914;6.638;2023-05-14T06:28:34;8.18;;;4.40;;
28343;SDS011;15597;50.914;6.638;2023-05-14T06:31:00;7.60;;;4.20;;
28343;SDS011;15597;50.914;6.638;2023-05-14T06:33:26;8.50;;;5.32;;
28343;SDS011;15597;50.914;6.638;2023-05-14T06:36:04;6.97;;;3.85;;
28343;SDS011;15597;50.914;6.638;2023-05-14T06:38:30;6.35;;;4.15;;
28343;SDS011;15597;50.914;6.638;2023-05-14T06:40:56;13.52;;;5.90;;
28343;SDS011;15597;50.914;6.638;2023-05-14T06:43:21;17.02;;;9.57;;
28343;SDS011;15597;50.914;6.638;2023-05-14T06:45:47;6.47;;;4.10;;
28343;SDS011;15597;50.914;6.638;2023-05-14T06:48:14;12.43;;;6.60;;
28343;SDS011;15597;50.914;6.638;2023-05-14T06:50:40;7.20;;;4.30;;
28343;SDS011;15597;50.914;6.638;2023-05-14T06:53:05;7.35;;;4.13;;
28343;SDS011;15597;50.914;6.638;2023-05-14T06:55:31;6.55;;;3.83;;
28343;SDS011;15597;50.914;6.638;2023-05-14T06:57:56;12.23;;;7.60;;
28343;SDS011;15597;50.914;6.638;2023-05-14T07:00:22;20.20;;;11.18;;
28343;SDS011;15597;50.914;6.638;2023-05-14T07:02:47;12.70;;;8.05;;
28343;SDS011;15597;50.914;6.638;2023-05-14T07:05:13;12.85;;;5.63;;
28343;SDS011;15597;50.914;6.638;2023-05-14T07:07:38;7.47;;;4.50;;
28343;SDS011;15597;50.914;6.638;2023-05-14T07:10:04;9.13;;;4.90;;
28343;SDS011;15597;50.914;6.638;2023-05-14T07:12:30;11.85;;;5.15;;
28343;SDS011;15597;50.914;6.638;2023-05-14T07:14:56;10.60;;;4.35;;
28343;SDS011;15597;50.914;6.638;2023-05-14T07:17:21;17.48;;;4.97;;
28343;SDS011;15597;50.914;6.638;2023-05-14T07:19:47;18.15;;;11.13;;
28343;SDS011;15597;50.914;6.638;2023-05-14T07:22:12;9.02;;;6.30;;
28343;SDS011;15597;50.914;6.638;2023-05-14T07:24:38;13.95;;;7.20;;
28343;SDS011;15597;50.914;6.638;2023-05-14T07:27:03;21.80;;;9.85;;
28343;SDS011;15597;50.914;6.638;2023-05-14T07:29:29;16.20;;;9.57;;
28343;SDS011;15597;50.914;6.638;2023-05-14T07:31:55;21.40;;;13.57;;
28343;SDS011;15597;50.914;6.638;2023-05-14T07:34:21;22.17;;;10.18;;
28343;SDS011;15597;50.914;6.638;2023-05-14T07:36:46;17.65;;;9.30;;
28343;SDS011;15597;50.914;6.638;2023-05-14T07:39:12;9.10;;;5.30;;
28343;SDS011;15597;50.914;6.638;2023-05-14T07:41:37;9.30;;;5.03;;
28343;SDS011;15597;50.914;6.638;2023-05-14T07:44:03;17.88;;;11.95;;
28343;SDS011;15597;50.914;6.638;2023-05-14T07:46:29;12.73;;;7.85;;
28343;SDS011;15597;50.914;6.638;2023-05-14T07:48:54;12.13;;;5.50;;
28343;SDS011;15597;50.914;6.638;2023-05-14T07:51:20;10.68;;;6.32;;
28343;SDS011;15597;50.914;6.638;2023-05-14T07:53:45;16.85;;;9.32;;
28343;SDS011;15597;50.914;6.638;2023-05-14T07:56:11;21.23;;;12.65;;
28343;SDS011;15597;50.914;6.638;2023-05-14T07:58:36;9.20;;;5.93;;
28343;SDS011;15597;50.914;6.638;2023-05-14T08:01:02;20.45;;;12.65;;
28343;SDS011;15597;50.914;6.638;2023-05-14T08:03:31;20.33;;;12.02;;
28343;SDS011;15597;50.914;6.638;2023-05-14T08:05:57;13.60;;;7.63;;
28343;SDS011;15597;50.914;6.638;2023-05-14T08:08:22;15.43;;;9.07;;
28343;SDS011;15597;50.914;6.638;2023-05-14T08:10:49;17.15;;;9.77;;
28343;SDS011;15597;50.914;6.638;2023-05-14T08:13:15;20.88;;;13.93;;
28343;SDS011;15597;50.914;6.638;2023-05-14T08:15:40;14.45;;;9.20;;
28343;SDS011;15597;50.914;6.638;2023-05-14T08:18:06;15.60;;;8.45;;
28343;SDS011;15597;50.914;6.638;2023-05-14T08:20:31;13.55;;;8.77;;
28343;SDS011;15597;50.914;6.638;2023-05-14T08:22:57;11.43;;;5.95;;
28343;SDS011;15597;50.914;6.638;2023-05-14T08:25:23;20.10;;;12.75;;
28343;SDS011;15597;50.914;6.638;2023-05-14T08:27:48;21.02;;;13.45;;
28343;SDS011;15597;50.914;6.638;2023-05-14T08:30:14;15.38;;;9.48;;
28343;SDS011;15597;50.914;6.638;2023-05-14T08:32:40;10.65;;;6.43;;
28343;SDS011;15597;50.914;6.638;2023-05-14T08:35:06;9.90;;;6.45;;
28343;SDS011;15597;50.914;6.638;2023-05-14T08:37:32;15.52;;;9.40;;
28343;SDS011;15597;50.914;6.638;2023-05-14T08:39:58;14.15;;;9.10;;
28343;SDS011;15597;50.914;6.638;2023-05-14T08:42:24;11.20;;;6.30;;
28343;SDS011;15597;50.914;6.638;2023-05-14T08:45:00;15.00;;;10.30;;
28343;SDS011;15597;50.914;6.638;2023-05-14T08:47:28;11.02;;;7.20;;
28343;SDS011;15597;50.914;6.638;2023-05-14T08:50:01;18.42;;;9.18;;
28343;SDS011;15597;50.914;6.638;2023-05-14T08:54:55;16.35;;;8.15;;
28343;SDS011;15597;50.914;6.638;2023-05-14T08:59:49;14.75;;;8.10;;
28343;SDS011;15597;50.914;6.638;2023-05-14T09:02:15;10.98;;;7.53;;
28343;SDS011;15597;50.914;6.638;2023-05-14T09:04:41;12.63;;;8.40;;
28343;SDS011;15597;50.914;6.638;2023-05-14T09:07:07;13.10;;;9.00;;
28343;SDS011;15597;50.914;6.638;2023-05-14T09:09:33;12.73;;;7.95;;
28343;SDS011;15597;50.914;6.638;2023-05-14T09:11:59;9.93;;;5.55;;
28343;SDS011;15597;50.914;6.638;2023-05-14T09:14:25;10.40;;;7.32;;
28343;SDS011;15597;50.914;6.638;2023-05-14T09:16:51;11.35;;;8.10;;
28343;SDS011;15597;50.914;6.638;2023-05-14T09:19:16;9.23;;;5.90;;
28343;SDS011;15597;50.914;6.638;2023-05-14T09:21:43;12.38;;;6.90;;
28343;SDS011;15597;50.914;6.638;2023-05-14T09:24:17;11.77;;;7.72;;
28343;SDS011;15597;50.914;6.638;2023-05-14T09:26:53;11.00;;;6.00;;
28343;SDS011;15597;50.914;6.638;2023-05-14T09:29:20;9.40;;;5.68;;
28343;SDS011;15597;50.914;6.638;2023-05-14T09:31:49;9.85;;;6.18;;
28343;SDS011;15597;50.914;6.638;2023-05-14T09:36:55;11.30;;;6.13;;
28343;SDS011;15597;50.914;6.638;2023-05-14T09:39:25;7.70;;;5.47;;
28343;SDS011;15597;50.914;6.638;2023-05-14T09:41:52;8.23;;;5.53;;
28343;SDS011;15597;50.914;6.638;2023-05-14T09:44:18;7.80;;;5.13;;
28343;SDS011;15597;50.914;6.638;2023-05-14T09:46:44;8.85;;;6.00;;
28343;SDS011;15597;50.914;6.638;2023-05-14T09:49:10;9.75;;;4.93;;
28343;SDS011;15597;50.914;6.638;2023-05-14T09:51:36;9.32;;;6.45;;
28343;SDS011;15597;50.914;6.638;2023-05-14T09:54:05;9.10;;;5.63;;
28343;SDS011;15597;50.914;6.638;2023-05-14T09:56:31;7.47;;;4.35;;
28343;SDS011;15597;50.914;6.638;2023-05-14T09:58:58;7.38;;;5.70;;
28343;SDS011;15597;50.914;6.638;2023-05-14T10:01:24;8.98;;;6.88;;
28343;SDS011;15597;50.914;6.638;2023-05-14T10:03:51;9.35;;;4.97;;
28343;SDS011;15597;50.914;6.638;2023-05-14T10:06:18;9.25;;;6.25;;
28343;SDS011;15597;50.914;6.638;2023-05-14T10:08:48;10.00;;;7.15;;
28343;SDS011;15597;50.914;6.638;2023-05-14T10:11:19;13.07;;;8.98;;
28343;SDS011;15597;50.914;6.638;2023-05-14T10:13:56;12.38;;;8.90;;
28343;SDS011;15597;50.914;6.638;2023-05-14T10:16:27;8.32;;;5.93;;
28343;SDS011;15597;50.914;6.638;2023-05-14T10:19:09;10.13;;;6.07;;
28343;SDS011;15597;50.914;6.638;2023-05-14T10:21:38;10.30;;;7.00;;
28343;SDS011;15597;50.914;6.638;2023-05-14T10:24:06;13.70;;;8.18;;
28343;SDS011;15597;50.914;6.638;2023-05-14T10:26:33;13.23;;;8.57;;
28343;SDS011;15597;50.914;6.638;2023-05-14T10:29:06;8.90;;;5.88;;
28343;SDS011;15597;50.914;6.638;2023-05-14T10:31:53;9.65;;;6.55;;
28343;SDS011;15597;50.914;6.638;2023-05-14T10:37:21;11.63;;;7.70;;
28343;SDS011;15597;50.914;6.638;2023-05-14T10:44:44;10.88;;;7.05;;
28343;SDS011;15597;50.914;6.638;2023-05-14T10:47:13;16.17;;;10.57;;
28343;SDS011;15597;50.914;6.638;2023-05-14T10:49:42;15.85;;;12.27;;
28343;SDS011;15597;50.914;6.638;2023-05-14T10:52:10;16.77;;;11.43;;
28343;SDS011;15597;50.914;6.638;2023-05-14T10:54:37;12.50;;;8.70;;
28343;SDS011;15597;50.914;6.638;2023-05-14T10:57:07;11.90;;;7.40;;
28343;SDS011;15597;50.914;6.638;2023-05-14T10:59:35;10.77;;;6.88;;
28343;SDS011;15597;50.914;6.638;2023-05-14T11:02:03;12.55;;;8.90;;
28343;SDS011;15597;50.914;6.638;2023-05-14T11:04:30;13.00;;;9.00;;
28343;SDS011;15597;50.914;6.638;2023-05-14T11:06:55;14.05;;;8.85;;
28343;SDS011;15597;50.914;6.638;2023-05-14T11:09:21;11.50;;;7.32;;
28343;SDS011;15597;50.914;6.638;2023-05-14T11:11:48;15.75;;;9.95;;
28343;SDS011;15597;50.914;6.638;2023-05-14T11:14:13;8.38;;;5.85;;
28343;SDS011;15597;50.914;6.638;2023-05-14T11:16:39;15.23;;;9.20;;
28343;SDS011;15597;50.914;6.638;2023-05-14T11:19:05;11.07;;;8.32;;
28343;SDS011;15597;50.914;6.638;2023-05-14T11:21:31;12.93;;;6.22;;
28343;SDS011;15597;50.914;6.638;2023-05-14T11:23:58;13.48;;;9.60;;
28343;SDS011;15597;50.914;6.638;2023-05-14T11:28:50;15.40;;;10.38;;
28343;SDS011;15597;50.914;6.638;2023-05-14T11:31:15;11.23;;;7.75;;
28343;SDS011;15597;50.914;6.638;2023-05-14T11:33:41;12.40;;;8.05;;
28343;SDS011;15597;50.914;6.638;2023-05-14T11:36:09;11.15;;;8.02;;
28343;SDS011;15597;50.914;6.638;2023-05-14T11:38:35;9.05;;;6.65;;
28343;SDS011;15597;50.914;6.638;2023-05-14T11:41:13;10.77;;;6.85;;
28343;SDS011;15597;50.914;6.638;2023-05-14T11:43:39;9.77;;;6.70;;
28343;SDS011;15597;50.914;6.638;2023-05-14T11:46:05;13.38;;;8.45;;
28343;SDS011;15597;50.914;6.638;2023-05-14T11:48:31;12.38;;;7.85;;
28343;SDS011;15597;50.914;6.638;2023-05-14T11:50:57;11.32;;;7.93;;
28343;SDS011;15597;50.914;6.638;2023-05-14T11:53:26;12.65;;;8.77;;
28343;SDS011;15597;50.914;6.638;2023-05-14T11:55:54;14.98;;;8.23;;
28343;SDS011;15597;50.914;6.638;2023-05-14T11:58:22;8.88;;;6.22;;
28343;SDS011;15597;50.914;6.638;2023-05-14T12:00:49;10.75;;;6.60;;
28343;SDS011;15597;50.914;6.638;2023-05-14T12:03:15;8.65;;;6.40;;
28343;SDS011;15597;50.914;6.638;2023-05-14T12:05:53;10.93;;;6.30;;
28343;SDS011;15597;50.914;6.638;2023-05-14T12:08:22;9.38;;;6.28;;
28343;SDS011;15597;50.914;6.638;2023-05-14T12:10:51;8.65;;;6.15;;
28343;SDS011;15597;50.914;6.638;2023-05-14T12:13:18;10.75;;;7.35;;
28343;SDS011;15597;50.914;6.638;2023-05-14T12:15:52;8.20;;;6.18;;
28343;SDS011;15597;50.914;6.638;2023-05-14T12:18:19;11.65;;;6.18;;
28343;SDS011;15597;50.914;6.638;2023-05-14T12:20:48;9.85;;;6.40;;
28343;SDS011;15597;50.914;6.638;2023-05-14T12:23:13;7.97;;;5.47;;
28343;SDS011;15597;50.914;6.638;2023-05-14T12:25:42;10.50;;;5.57;;
28343;SDS011;15597;50.914;6.638;2023-05-14T12:28:17;8.45;;;5.05;;
28343;SDS011;15597;50.914;6.638;2023-05-14T12:30:44;7.80;;;5.00;;
28343;SDS011;15597;50.914;6.638;2023-05-14T12:33:10;8.73;;;5.32;;
28343;SDS011;15597;50.914;6.638;2023-05-14T12:35:35;8.60;;;5.03;;
28343;SDS011;15597;50.914;6.638;2023-05-14T12:38:01;7.60;;;5.40;;
28343;SDS011;15597;50.914;6.638;2023-05-14T12:40:27;8.63;;;5.10;;
28343;SDS011;15597;50.914;6.638;2023-05-14T12:42:53;6.63;;;5.20;;
28343;SDS011;15597;50.914;6.638;2023-05-14T12:45:19;10.05;;;5.40;;
28343;SDS011;15597;50.914;6.638;2023-05-14T12:47:45;7.05;;;5.50;;
28343;SDS011;15597;50.914;6.638;2023-05-14T12:50:10;7.45;;;4.40;;
28343;SDS011;15597;50.914;6.638;2023-05-14T12:52:36;7.35;;;4.55;;
28343;SDS011;15597;50.914;6.638;2023-05-14T12:55:02;7.90;;;4.95;;
28343;SDS011;15597;50.914;6.638;2023-05-14T12:57:28;6.63;;;4.45;;
28343;SDS011;15597;50.914;6.638;2023-05-14T12:59:54;8.48;;;5.13;;
28343;SDS011;15597;50.914;6.638;2023-05-14T13:02:20;8.43;;;4.60;;
28343;SDS011;15597;50.914;6.638;2023-05-14T13:04:46;7.43;;;4.57;;
28343;SDS011;15597;50.914;6.638;2023-05-14T13:07:12;7.03;;;5.13;;
28343;SDS011;15597;50.914;6.638;2023-05-14T13:09:38;7.13;;;4.95;;
28343;SDS011;15597;50.914;6.638;2023-05-14T13:12:03;10.40;;;5.50;;
28343;SDS011;15597;50.914;6.638;2023-05-14T13:14:29;7.60;;;5.18;;
28343;SDS011;15597;50.914;6.638;2023-05-14T13:16:55;8.00;;;4.90;;
28343;SDS011;15597;50.914;6.638;2023-05-14T13:19:20;12.13;;;4.85;;
28343;SDS011;15597;50.914;6.638;2023-05-14T13:21:46;7.63;;;4.40;;
28343;SDS011;15597;50.914;6.638;2023-05-14T13:24:11;7.10;;;4.40;;
28343;SDS011;15597;50.914;6.638;2023-05-14T13:26:37;6.97;;;4.93;;
28343;SDS011;15597;50.914;6.638;2023-05-14T13:29:03;6.53;;;4.35;;
28343;SDS011;15597;50.914;6.638;2023-05-14T13:31:28;8.98;;;4.47;;
28343;SDS011;15597;50.914;6.638;2023-05-14T13:33:54;6.95;;;4.40;;
28343;SDS011;15597;50.914;6.638;2023-05-14T13:36:22;9.30;;;4.50;;
28343;SDS011;15597;50.914;6.638;2023-05-14T13:38:47;6.38;;;4.10;;
28343;SDS011;15597;50.914;6.638;2023-05-14T13:41:13;7.57;;;3.78;;
28343;SDS011;15597;50.914;6.638;2023-05-14T13:43:39;6.20;;;3.83;;
28343;SDS011;15597;50.914;6.638;2023-05-14T13:46:04;5.63;;;3.95;;
28343;SDS011;15597;50.914;6.638;2023-05-14T13:48:31;7.30;;;3.88;;
28343;SDS011;15597;50.914;6.638;2023-05-14T13:50:56;7.15;;;3.90;;
28343;SDS011;15597;50.914;6.638;2023-05-14T13:53:23;7.00;;;4.20;;
28343;SDS011;15597;50.914;6.638;2023-05-14T13:55:49;6.28;;;3.65;;
28343;SDS011;15597;50.914;6.638;2023-05-14T13:58:20;6.65;;;4.20;;
28343;SDS011;15597;50.914;6.638;2023-05-14T14:00:47;5.75;;;4.20;;
28343;SDS011;15597;50.914;6.638;2023-05-14T14:03:13;6.20;;;4.20;;
28343;SDS011;15597;50.914;6.638;2023-05-14T14:05:38;5.10;;;3.55;;
28343;SDS011;15597;50.914;6.638;2023-05-14T14:08:04;6.80;;;4.10;;
28343;SDS011;15597;50.914;6.638;2023-05-14T14:10:30;6.50;;;4.18;;
28343;SDS011;15597;50.914;6.638;2023-05-14T14:12:56;6.90;;;3.88;;
28343;SDS011;15597;50.914;6.638;2023-05-14T14:15:21;5.85;;;4.15;;
28343;SDS011;15597;50.914;6.638;2023-05-14T14:17:47;5.63;;;3.92;;
28343;SDS011;15597;50.914;6.638;2023-05-14T14:20:13;7.28;;;3.50;;
28343;SDS011;15597;50.914;6.638;2023-05-14T14:22:39;6.53;;;3.60;;
28343;SDS011;15597;50.914;6.638;2023-05-14T14:25:05;5.93;;;3.42;;
28343;SDS011;15597;50.914;6.638;2023-05-14T14:27:32;7.65;;;3.63;;
28343;SDS011;15597;50.914;6.638;2023-05-14T14:30:03;5.00;;;3.08;;
28343;SDS011;15597;50.914;6.638;2023-05-14T14:32:33;6.38;;;3.60;;
28343;SDS011;15597;50.914;6.638;2023-05-14T14:34:59;6.68;;;3.97;;
28343;SDS011;15597;50.914;6.638;2023-05-14T14:37:25;6.45;;;3.40;;
28343;SDS011;15597;50.914;6.638;2023-05-14T14:39:51;5.25;;;3.45;;
28343;SDS011;15597;50.914;6.638;2023-05-14T14:42:16;7.03;;;3.45;;
28343;SDS011;15597;50.914;6.638;2023-05-14T14:44:42;8.88;;;3.60;;
28343;SDS011;15597;50.914;6.638;2023-05-14T14:47:07;6.82;;;3.72;;
28343;SDS011;15597;50.914;6.638;2023-05-14T14:49:33;5.70;;;3.28;;
28343;SDS011;15597;50.914;6.638;2023-05-14T14:51:58;6.35;;;3.88;;
28343;SDS011;15597;50.914;6.638;2023-05-14T14:54:24;5.65;;;3.33;;
28343;SDS011;15597;50.914;6.638;2023-05-14T14:56:50;7.38;;;3.75;;
28343;SDS011;15597;50.914;6.638;2023-05-14T14:59:16;8.20;;;3.75;;
28343;SDS011;15597;50.914;6.638;2023-05-14T15:01:42;5.38;;;3.17;;
28343;SDS011;15597;50.914;6.638;2023-05-14T15:04:08;5.53;;;3.38;;